Time;durP1;ratioP1;P1;durP2;ratioP2;P2;SDS_P1;SDS_P2;PMS_P1;PMS_P2;Temp;Humidity;BMP_temperature;BMP_pressure;BME280_temperature;BME280_humidity;BME280_pressure;Samples;Min_cycle;Max_cycle;Signal;HPM_P1;HPM_P2
2022/11/18 00:01:18;;;;;;;0.70;0.70;;;;;;;11.41;64.67;98469.22;4339204;33;32972;-84
2022/11/18 00:03:47;;;;;;;2.12;2.03;;;;;;;11.37;64.59;98470.34;4365127;32;33637;-84
2022/11/18 00:06:17;;;;;;;2.08;1.90;;;;;;;11.29;64.75;98470.03;4358540;32;33498;-84
2022/11/18 00:08:45;;;;;;;4.53;4.15;;;;;;;11.36;64.43;98466.03;4344473;33;34016;-84
2022/11/18 00:14:17;;;;;;;1.77;1.67;;;;;;;11.34;64.45;98467.91;4333474;33;34172;-84
2022/11/18 00:14:19;;;;;;;2.20;2.00;;;;;;;11.29;64.30;98460.28;4342518;33;33674;-84
2022/11/18 00:16:57;;;;;;;2.03;1.83;;;;;;;11.21;64.10;98456.50;4349893;32;32319;-84
2022/11/18 00:19:27;;;;;;;1.75;1.65;;;;;;;11.11;64.27;98463.34;4337184;33;32873;-83
2022/11/18 00:21:55;;;;;;;1.85;1.75;;;;;;;11.08;64.30;98463.56;4357817;32;32559;-83
2022/11/18 00:24:22;;;;;;;3.58;3.28;;;;;;;11.10;64.09;98466.94;4363016;32;33866;-83
2022/11/18 00:26:50;;;;;;;1.83;1.73;;;;;;;11.07;63.92;98460.06;4357729;32;31916;-84
2022/11/18 00:29:18;;;;;;;2.75;2.45;;;;;;;11.06;63.90;98457.50;4339345;33;32623;-84
2022/11/18 00:31:47;;;;;;;1.92;1.80;;;;;;;11.23;63.02;98446.66;4351533;32;33941;-84
2022/11/18 00:34:16;;;;;;;2.10;2.00;;;;;;;11.02;63.40;98446.34;4351791;32;32089;-83
2022/11/18 00:36:44;;;;;;;2.28;2.08;;;;;;;11.00;63.43;98448.22;4339627;33;32732;-83
2022/11/18 00:39:13;;;;;;;1.50;1.40;;;;;;;10.94;63.63;98448.63;4359172;32;33553;-83
2022/11/18 00:44:27;;;;;;;1.65;1.55;;;;;;;10.54;64.52;98447.75;4343290;33;33598;-84
2022/11/18 00:46:55;;;;;;;5.95;3.40;;;;;;;10.58;64.03;98438.69;4344967;33;33771;-84
2022/11/18 00:49:23;;;;;;;1.23;1.23;;;;;;;10.67;63.87;98448.66;4344884;33;34229;-84
2022/11/18 00:51:51;;;;;;;1.35;1.30;;;;;;;10.68;63.88;98445.06;4339400;33;33574;-84
2022/11/18 00:54:18;;;;;;;0.98;0.75;;;;;;;10.69;63.84;98450.25;4364757;32;33353;-84
2022/11/18 00:56:46;;;;;;;0.70;0.70;;;;;;;10.63;63.96;98455.91;4357586;32;33036;-84
2022/11/18 00:59:14;;;;;;;2.25;1.60;;;;;;;10.66;63.78;98460.16;4337875;33;32950;-84
2022/11/18 01:01:41;;;;;;;1.00;1.00;;;;;;;10.52;64.00;98453.13;4351046;32;33540;-84
2022/11/18 01:04:09;;;;;;;1.12;1.08;;;;;;;10.40;64.36;98460.06;4344981;33;34122;-84
2022/11/18 01:06:37;;;;;;;3.17;1.87;;;;;;;10.40;64.42;98459.22;4349195;32;34294;-84
2022/11/18 01:09:04;;;;;;;2.50;1.58;;;;;;;10.40;64.61;98453.94;4350442;32;33896;-84
2022/11/18 01:14:18;;;;;;;2.20;2.10;;;;;;;10.68;63.29;98431.84;4362184;32;33069;-84
2022/11/18 01:16:50;;;;;;;2.25;2.15;;;;;;;10.59;63.03;98427.22;4339752;33;34290;-84
2022/11/18 01:19:26;;;;;;;4.07;2.60;;;;;;;10.32;64.19;98420.12;4353722;32;33512;-84
2022/11/18 01:21:55;;;;;;;3.17;2.87;;;;;;;10.23;64.93;98421.53;4353349;32;34273;-84
2022/11/18 01:24:22;;;;;;;3.03;2.83;;;;;;;10.07;65.31;98414.72;4356290;32;33044;-84
2022/11/18 01:26:50;;;;;;;1.23;1.12;;;;;;;10.18;65.06;98409.59;4345401;33;32875;-84
2022/11/18 01:29:18;;;;;;;3.30;2.12;;;;;;;10.27;64.73;98403.75;4346048;33;33627;-84
2022/11/18 01:31:46;;;;;;;3.58;2.30;;;;;;;10.28;64.55;98408.09;4344351;33;34622;-84
2022/11/18 01:34:33;;;;;;;2.35;2.15;;;;;;;10.10;64.93;98404.78;4339668;33;32164;-84
2022/11/18 01:37:01;;;;;;;1.12;1.12;;;;;;;10.23;64.64;98399.59;4353379;32;32937;-84
2022/11/18 01:39:30;;;;;;;8.38;3.58;;;;;;;10.23;64.82;98402.22;4340064;33;33354;-84
2022/11/18 01:41:58;;;;;;;2.28;2.17;;;;;;;10.33;64.60;98419.19;4352061;32;32888;-84
2022/11/18 01:44:50;;;;;;;1.83;1.73;;;;;;;10.11;65.30;98419.69;4351068;32;34056;-85
2022/11/18 01:47:18;;;;;;;;;;;;;;;10.08;65.15;98419.88;4351679;32;33664;-84
2022/11/18 01:49:45;;;;;;;0.70;0.70;;;;;;;10.34;64.12;98415.59;4351291;32;33435;-84
2022/11/18 01:52:13;;;;;;;0.95;0.88;;;;;;;10.49;62.98;98421.66;4346172;32;34134;-84
2022/11/18 01:54:43;;;;;;;2.35;2.15;;;;;;;10.11;64.11;98432.88;4344148;33;33135;-83
2022/11/18 01:57:16;;;;;;;3.92;2.83;;;;;;;9.64;65.88;98446.41;4343783;33;32822;-83
2022/11/18 01:59:45;;;;;;;5.10;2.25;;;;;;;9.64;65.92;98439.34;4350434;32;34856;-84
2022/11/18 02:02:13;;;;;;;8.45;4.65;;;;;;;9.74;65.50;98444.88;4349241;32;35060;-84
2022/11/18 02:04:45;;;;;;;1.55;1.45;;;;;;;9.83;65.02;98432.94;4357931;32;32108;-83
2022/11/18 02:07:13;;;;;;;4.50;1.48;;;;;;;9.62;65.98;98433.28;4343385;32;33517;-84
2022/11/18 02:09:41;;;;;;;6.85;2.28;;;;;;;9.69;65.58;98431.16;4353724;32;34694;-84
2022/11/18 02:12:08;;;;;;;0.73;0.73;;;;;;;9.73;65.88;98422.09;4348954;32;34601;-84
2022/11/18 02:14:41;;;;;;;1.02;0.98;;;;;;;9.71;66.24;98416.91;4350966;32;33038;-85
2022/11/18 02:17:11;;;;;;;2.92;2.50;;;;;;;9.74;66.50;98408.81;4336396;33;33979;-85
2022/11/18 02:19:45;;;;;;;3.22;2.12;;;;;;;9.98;65.98;98411.72;4352155;32;33460;-84
2022/11/18 02:22:22;;;;;;;2.05;1.95;;;;;;;10.35;64.55;98409.41;4354049;32;32651;-85
2022/11/18 02:25:08;;;;;;;6.60;3.45;;;;;;;9.94;66.20;98404.09;4357685;32;33898;-85
2022/11/18 02:27:57;;;;;;;1.25;1.15;;;;;;;9.78;66.88;98404.22;4358250;32;33587;-85
2022/11/18 02:30:25;;;;;;;1.00;1.00;;;;;;;10.32;65.27;98404.31;4344298;33;33249;-87
2022/11/18 02:32:56;;;;;;;0.88;0.88;;;;;;;9.86;66.76;98401.94;4357238;32;34463;-86
2022/11/18 02:35:32;;;;;;;16.25;3.17;;;;;;;10.12;66.15;98394.16;4345958;33;32501;-84
2022/11/18 02:38:04;;;;;;;3.47;3.17;;;;;;;10.11;66.26;98384.53;4332828;33;32709;-83
2022/11/18 02:40:38;;;;;;;4.95;4.50;;;;;;;10.03;66.90;98381.56;4345431;33;33961;-85
2022/11/18 02:43:17;;;;;;;12.48;3.78;;;;;;;10.43;65.43;98361.38;4357440;32;33592;-85
2022/11/18 02:45:48;;;;;;;1.35;1.27;;;;;;;10.34;65.24;98349.63;4356831;32;32766;-86
2022/11/18 02:48:17;;;;;;;0.77;0.77;;;;;;;10.03;66.92;98352.56;4357694;32;33849;-86
2022/11/18 02:50:46;;;;;;;4.05;2.97;;;;;;;9.96;67.23;98345.03;4344602;33;33451;-85
2022/11/18 02:53:16;;;;;;;2.20;2.10;;;;;;;10.42;66.00;98347.34;4345410;33;33146;-87
2022/11/18 02:55:45;;;;;;;2.90;2.15;;;;;;;10.41;65.91;98345.66;4345080;33;32792;-86
2022/11/18 02:58:15;;;;;;;9.05;3.78;;;;;;;10.12;67.30;98355.44;4357684;32;33829;-86
2022/11/18 03:00:43;;;;;;;7.78;4.72;;;;;;;10.05;67.58;98358.56;4357495;32;32592;-88
2022/11/18 03:03:27;;;;;;;3.65;3.22;;;;;;;10.11;67.39;98361.69;4357784;32;33814;-88
2022/11/18 03:06:25;;;;;;;7.07;5.15;;;;;;;10.24;67.31;98359.94;4345434;32;34076;-88
2022/11/18 03:09:21;;;;;;;1.73;1.62;;;;;;;10.36;67.13;98358.31;4344581;33;34018;-86
2022/11/18 03:12:10;;;;;;;2.47;2.37;;;;;;;10.61;66.17;98361.97;4346200;33;33959;-87
2022/11/18 03:14:38;;;;;;;3.40;2.35;;;;;;;10.66;65.91;98368.63;4355873;32;32731;-87
2022/11/18 03:17:10;;;;;;;4.10;3.70;;;;;;;10.40;67.08;98375.63;4357901;32;34320;-88
2022/11/18 03:20:12;;;;;;;3.85;3.45;;;;;;;10.57;66.71;98376.31;4344772;33;34166;-87
2022/11/18 03:22:44;;;;;;;0.52;0.52;;;;;;;10.71;66.02;98374.44;4348551;32;33269;-87
2022/11/18 03:25:25;;;;;;;1.95;1.85;;;;;;;10.30;67.45;98387.72;4363848;32;33652;-87
2022/11/18 03:28:05;;;;;;;3.05;2.85;;;;;;;10.25;68.00;98387.16;4352144;32;33499;-87
2022/11/18 03:30:36;;;;;;;3.30;2.90;;;;;;;10.29;67.96;98387.81;4353327;32;34679;-87
2022/11/18 03:33:07;;;;;;;0.77;0.77;;;;;;;10.65;67.09;98393.31;4355248;32;33170;-87
2022/11/18 03:35:39;;;;;;;1.33;1.20;;;;;;;10.71;66.71;98384.16;4351951;32;33234;-87
2022/11/18 03:38:12;;;;;;;2.40;2.20;;;;;;;10.80;66.32;98386.19;4354828;32;33035;-87
2022/11/18 03:40:44;;;;;;;1.17;1.15;;;;;;;10.45;67.52;98381.44;4349163;32;33844;-87
2022/11/18 03:43:15;;;;;;;1.27;1.20;;;;;;;10.41;68.07;98387.03;4339629;32;33131;-87
2022/11/18 03:45:46;;;;;;;1.50;1.40;;;;;;;10.37;68.07;98389.00;4345645;32;32951;-87
2022/11/18 03:48:30;;;;;;;1.15;1.10;;;;;;;10.52;68.03;98392.44;4358260;32;32296;-87
2022/11/18 03:51:06;;;;;;;1.85;1.75;;;;;;;10.56;67.79;98403.66;4362679;32;33743;-87
2022/11/18 03:53:37;;;;;;;1.92;1.83;;;;;;;10.56;68.06;98398.38;4350376;32;34884;-86
2022/11/18 03:56:11;;;;;;;0.65;0.65;;;;;;;10.72;67.29;98391.13;4351703;32;32754;-85
2022/11/18 03:58:59;;;;;;;1.48;1.37;;;;;;;10.69;67.58;98386.06;4364083;32;33319;-86
2022/11/18 04:01:34;;;;;;;1.87;1.75;;;;;;;10.81;67.10;98374.66;4346243;32;32709;-85
2022/11/18 04:04:02;;;;;;;1.83;1.73;;;;;;;10.86;66.66;98372.56;4356130;32;33920;-85
2022/11/18 04:06:37;;;;;;;2.20;1.98;;;;;;;10.60;67.63;98376.13;4366385;32;34427;-86
2022/11/18 04:09:18;;;;;;;1.02;1.02;;;;;;;10.45;68.20;98365.62;4359189;32;33939;-86
2022/11/18 04:12:02;;;;;;;2.33;2.12;;;;;;;10.48;68.71;98361.91;4348521;32;33293;-86
2022/11/18 04:14:38;;;;;;;5.47;3.97;;;;;;;10.58;68.38;98354.22;4355135;32;34972;-87
2022/11/18 04:17:11;;;;;;;2.92;1.98;;;;;;;10.88;67.51;98336.34;4365118;32;33876;-87
2022/11/18 04:19:39;;;;;;;1.10;1.02;;;;;;;10.83;67.35;98325.25;4353454;32;32098;-87
2022/11/18 04:22:07;;;;;;;2.05;1.95;;;;;;;10.98;66.75;98321.56;4352251;32;32619;-85
2022/11/18 04:24:35;;;;;;;3.08;2.67;;;;;;;11.02;66.52;98315.13;4345021;32;33806;-86
2022/11/18 04:27:03;;;;;;;4.57;2.95;;;;;;;10.92;66.77;98314.06;4345642;32;33695;-87
2022/11/18 04:29:32;;;;;;;3.00;2.35;;;;;;;10.92;66.95;98311.41;4347004;33;32448;-85
2022/11/18 04:32:00;;;;;;;2.45;2.35;;;;;;;10.74;67.61;98310.88;4344729;33;34060;-87
2022/11/18 04:34:29;;;;;;;2.92;2.72;;;;;;;10.72;67.74;98307.47;4349495;32;33940;-86
2022/11/18 04:36:57;;;;;;;4.60;4.22;;;;;;;10.82;67.62;98318.25;4357560;32;34082;-87
2022/11/18 04:39:25;;;;;;;0.90;0.82;;;;;;;10.68;68.24;98310.44;4339768;33;32277;-87
2022/11/18 04:41:55;;;;;;;4.20;3.85;;;;;;;10.71;68.32;98315.50;4340343;33;33577;-89
2022/11/18 04:44:33;;;;;;;2.30;2.10;;;;;;;10.75;68.38;98323.13;4355807;32;33180;-86
2022/11/18 04:47:03;;;;;;;3.22;1.83;;;;;;;10.76;67.98;98334.53;4350729;32;33537;-86
2022/11/18 04:49:30;;;;;;;4.12;2.83;;;;;;;10.85;67.91;98333.91;4366071;32;33484;-85
2022/11/18 04:51:58;;;;;;;5.85;3.15;;;;;;;10.86;67.80;98345.31;4360679;32;36645;-85
2022/11/18 04:54:26;;;;;;;2.83;2.62;;;;;;;10.72;68.46;98355.00;4353790;32;34053;-85
2022/11/18 04:56:54;;;;;;;3.95;1.87;;;;;;;10.86;68.09;98350.59;4333961;33;34245;-85
2022/11/18 04:59:24;;;;;;;8.15;1.67;;;;;;;10.97;68.02;98353.38;4337709;33;33184;-85
2022/11/18 05:01:53;;;;;;;1.92;1.83;;;;;;;11.16;67.21;98345.03;4350107;32;34271;-85
2022/11/18 05:04:23;;;;;;;4.18;2.78;;;;;;;11.10;67.26;98342.78;4331940;33;33140;-86
2022/11/18 05:06:51;;;;;;;2.75;2.55;;;;;;;10.97;67.92;98338.34;4356657;32;32853;-88
2022/11/18 05:09:19;;;;;;;3.00;1.55;;;;;;;11.18;67.20;98329.91;4356802;32;32475;-87
2022/11/18 05:14:34;;;;;;;4.80;3.45;;;;;;;11.10;67.62;98322.50;4332223;33;34412;-88
2022/11/18 05:17:04;;;;;;;3.72;3.42;;;;;;;11.08;67.95;98320.91;4351278;32;32718;-87
2022/11/18 05:19:31;;;;;;;5.15;3.22;;;;;;;11.20;67.42;98305.06;4351472;32;34149;-86
2022/11/18 05:21:59;;;;;;;2.47;2.28;;;;;;;11.23;67.10;98312.75;4352719;32;34608;-86
2022/11/18 05:24:27;;;;;;;2.55;2.08;;;;;;;11.07;67.75;98306.03;4332970;33;34251;-86
2022/11/18 05:26:54;;;;;;;2.50;2.30;;;;;;;11.24;67.55;98309.16;4337528;33;32800;-87
2022/11/18 05:29:23;;;;;;;2.05;1.85;;;;;;;11.38;66.80;98310.00;4344074;33;34063;-86
2022/11/18 05:31:51;;;;;;;0.57;0.57;;;;;;;10.89;68.79;98316.06;4328909;33;32743;-87
2022/11/18 05:34:18;;;;;;;3.55;2.65;;;;;;;10.75;69.20;98319.63;4349970;32;33687;-87
2022/11/18 05:36:46;;;;;;;2.90;2.70;;;;;;;10.99;68.72;98320.59;4350085;32;32748;-87
2022/11/18 05:39:13;;;;;;;1.37;1.33;;;;;;;11.23;67.91;98312.75;4329265;33;34153;-87
2022/11/18 05:44:28;;;;;;;1.12;1.05;;;;;;;11.33;67.32;98310.31;4349056;32;32719;-87
2022/11/18 05:46:55;;;;;;;5.75;2.25;;;;;;;11.18;67.59;98319.31;4331525;33;34384;-87
2022/11/18 05:49:23;;;;;;;2.25;1.42;;;;;;;11.10;68.23;98322.50;4338109;32;32568;-88
2022/11/18 05:51:51;;;;;;;2.08;1.67;;;;;;;11.15;68.14;98309.81;4343732;33;33695;-87
2022/11/18 05:54:20;;;;;;;1.83;1.73;;;;;;;11.27;67.87;98314.25;4329222;33;33042;-87
2022/11/18 05:56:47;;;;;;;2.40;2.20;;;;;;;11.21;68.18;98319.13;4359190;32;34051;-87
2022/11/18 05:59:15;;;;;;;0.88;0.88;;;;;;;11.14;68.60;98317.84;4336747;33;33277;-86
2022/11/18 06:01:48;;;;;;;2.42;2.28;;;;;;;11.19;68.57;98326.28;4323744;33;33283;-88
2022/11/18 06:04:21;;;;;;;2.20;1.75;;;;;;;11.12;68.82;98330.31;4333824;33;34051;-86
2022/11/18 06:06:51;;;;;;;6.68;4.45;;;;;;;11.48;67.97;98330.38;4338345;33;33453;-86
2022/11/18 06:09:23;;;;;;;2.00;1.90;;;;;;;11.74;66.76;98328.53;4325393;33;32404;-85
2022/11/18 06:11:55;;;;;;;2.67;2.47;;;;;;;11.66;66.40;98327.38;4326870;33;33461;-86
2022/11/18 06:14:42;;;;;;;3.37;2.70;;;;;;;11.65;66.93;98317.78;4327879;33;33247;-85
2022/11/18 06:17:15;;;;;;;3.25;2.45;;;;;;;11.62;67.27;98317.97;4348889;32;34471;-85
2022/11/18 06:19:42;;;;;;;3.12;2.87;;;;;;;11.44;67.79;98314.84;4337529;32;33621;-86
2022/11/18 06:22:10;;;;;;;3.60;1.83;;;;;;;11.23;68.88;98306.63;4335936;32;34011;-85
2022/11/18 06:24:38;;;;;;;5.85;3.92;;;;;;;11.36;68.86;98301.34;4348034;32;33527;-87
2022/11/18 06:27:06;;;;;;;6.22;4.22;;;;;;;11.69;67.92;98306.03;4352846;32;33860;-87
2022/11/18 06:29:33;;;;;;;2.62;2.42;;;;;;;11.71;67.90;98301.44;4365912;32;33313;-88
2022/11/18 06:32:01;;;;;;;7.07;3.62;;;;;;;11.59;68.30;98305.00;4347215;32;32777;-87
2022/11/18 06:34:29;;;;;;;7.75;3.72;;;;;;;11.54;68.54;98298.25;4353194;32;32376;-87
2022/11/18 06:36:56;;;;;;;3.22;3.00;;;;;;;11.28;69.46;98296.59;4351862;32;33269;-93
2022/11/18 06:39:50;;;;;;;3.62;2.55;;;;;;;11.28;69.26;98299.22;4348937;32;34141;-93
2022/11/18 06:45:33;;;;;;;3.62;3.28;;;;;;;11.43;69.07;98298.12;4377990;32;33579;-93
2022/11/18 06:48:15;;;;;;;2.90;2.53;;;;;;;11.14;70.15;98312.56;4332244;33;32934;-93
2022/11/18 06:50:57;;;;;;;14.63;1.90;;;;;;;11.37;69.87;98313.59;4342578;32;33371;-92
2022/11/18 06:53:51;;;;;;;3.28;2.80;;;;;;;11.40;69.60;98316.03;4356758;32;34369;-93
2022/11/18 06:56:33;;;;;;;3.80;3.45;;;;;;;11.29;69.99;98314.97;4345124;32;32676;-92
2022/11/18 06:59:22;;;;;;;6.25;2.87;;;;;;;11.52;69.23;98317.78;4340909;33;33181;-91
2022/11/18 07:02:04;;;;;;;3.60;3.30;;;;;;;11.41;70.02;98315.06;4344571;33;32638;-94
2022/11/18 07:04:46;;;;;;;2.12;2.03;;;;;;;11.08;70.82;98319.13;4370057;32;33189;-91
2022/11/18 07:07:22;;;;;;;1.10;1.08;;;;;;;11.56;69.21;98313.12;4343131;33;32855;-86
2022/11/18 07:09:50;;;;;;;3.45;3.03;;;;;;;11.37;69.37;98314.44;4349408;32;33831;-86
2022/11/18 07:12:18;;;;;;;3.72;2.95;;;;;;;11.32;69.69;98327.13;4351922;32;32336;-86
2022/11/18 07:14:45;;;;;;;2.37;2.17;;;;;;;11.26;70.02;98311.72;4342247;33;32199;-86
2022/11/18 07:17:13;;;;;;;12.60;3.25;;;;;;;11.78;68.32;98300.06;4356581;32;33535;-86
2022/11/18 07:19:41;;;;;;;3.85;2.55;;;;;;;11.41;69.00;98297.41;4334074;33;33449;-86
2022/11/18 07:22:09;;;;;;;1.52;1.42;;;;;;;11.09;70.51;98293.53;4346455;32;32505;-86
2022/11/18 07:24:36;;;;;;;2.62;2.42;;;;;;;11.18;70.77;98298.19;4351957;32;32603;-86
2022/11/18 07:27:04;;;;;;;1.27;1.23;;;;;;;11.21;70.62;98293.53;4343877;32;33346;-88
2022/11/18 07:29:32;;;;;;;1.58;1.48;;;;;;;11.38;69.83;98289.69;4334488;32;33409;-88
2022/11/18 07:31:59;;;;;;;1.40;1.30;;;;;;;11.67;69.04;98292.06;4333726;33;32584;-87
2022/11/18 07:34:27;;;;;;;2.95;2.78;;;;;;;11.42;69.88;98292.97;4338426;33;34163;-88
2022/11/18 07:36:54;;;;;;;3.97;3.05;;;;;;;10.72;72.57;98290.78;4327678;33;32689;-88
2022/11/18 07:39:22;;;;;;;4.47;3.40;;;;;;;10.89;72.04;98287.84;4334296;33;32682;-87
2022/11/18 07:41:49;;;;;;;2.67;2.47;;;;;;;10.94;71.99;98298.94;4347431;32;33152;-88
2022/11/18 07:44:17;;;;;;;3.75;2.35;;;;;;;11.19;71.41;98290.16;4339194;33;34051;-87
2022/11/18 07:46:45;;;;;;;6.28;3.92;;;;;;;11.37;70.59;98285.37;4335646;32;33254;-87
2022/11/18 07:49:12;;;;;;;3.30;3.08;;;;;;;11.35;70.79;98284.66;4354016;32;33546;-88
2022/11/18 07:51:40;;;;;;;2.03;1.60;;;;;;;11.43;70.46;98287.56;4342316;33;33171;-91
2022/11/18 07:54:17;;;;;;;5.12;3.40;;;;;;;11.30;71.33;98281.50;4340465;32;32745;-91
2022/11/18 07:57:22;;;;;;;6.70;3.47;;;;;;;11.57;70.03;98276.00;4350939;32;34640;-93
2022/11/18 08:00:05;;;;;;;5.18;2.58;;;;;;;11.48;70.04;98274.88;4344508;33;33793;-93
2022/11/18 08:02:50;;;;;;;4.55;3.25;;;;;;;11.23;71.11;98280.22;4354942;32;33151;-93
2022/11/18 08:05:32;;;;;;;3.67;2.15;;;;;;;11.27;70.97;98279.06;4348044;32;33662;-93
2022/11/18 08:08:14;;;;;;;3.50;3.22;;;;;;;11.47;70.32;98277.63;4397183;32;33069;-93
2022/11/18 08:11:07;;;;;;;1.70;1.52;;;;;;;11.32;70.67;98284.00;4351178;32;32492;-90
2022/11/18 08:13:50;;;;;;;8.43;2.33;;;;;;;11.34;70.50;98282.94;4374616;32;32941;-92
2022/11/18 08:16:42;;;;;;;2.62;2.42;;;;;;;11.01;71.76;98272.94;4434182;32;32799;-92
2022/11/18 08:19:21;;;;;;;2.28;1.85;;;;;;;11.11;71.18;98260.81;4360100;32;34526;-92
2022/11/18 08:22:12;;;;;;;12.15;3.80;;;;;;;10.99;71.61;98270.41;4353571;32;33970;-90
2022/11/18 08:24:58;;;;;;;2.58;2.37;;;;;;;10.90;72.03;98267.56;4341557;32;33197;-91
2022/11/18 08:27:39;;;;;;;0.80;0.80;;;;;;;10.83;72.46;98266.31;4357743;32;32720;-91
2022/11/18 08:30:18;;;;;;;0.82;0.57;;;;;;;11.21;71.25;98256.56;4342710;32;20722;-91
2022/11/18 08:32:55;;;;;;;1.65;1.48;;;;;;;10.99;71.41;98262.50;4356162;32;34206;-91
2022/11/18 08:35:32;;;;;;;2.85;2.05;;;;;;;11.19;70.65;98262.87;4345165;32;32724;-91
2022/11/18 08:38:03;;;;;;;1.90;1.73;;;;;;;11.28;70.36;98251.66;4352850;32;33073;-92
2022/11/18 08:40:44;;;;;;;0.70;0.62;;;;;;;11.23;70.66;98240.59;4352881;32;33411;-91
2022/11/18 08:43:12;;;;;;;2.95;2.75;;;;;;;10.99;71.61;98241.37;4342564;33;35785;-90
2022/11/18 08:45:40;;;;;;;1.48;1.37;;;;;;;11.11;71.30;98231.75;4351391;32;32279;-90
2022/11/18 08:48:08;;;;;;;2.95;1.60;;;;;;;11.31;70.75;98235.59;4344421;33;32924;-90
2022/11/18 08:50:36;;;;;;;3.55;3.28;;;;;;;11.38;70.38;98230.72;4351263;32;33963;-90
2022/11/18 08:53:04;;;;;;;1.90;1.77;;;;;;;10.88;72.30;98229.88;4344921;32;33380;-90
2022/11/18 08:55:32;;;;;;;2.40;2.20;;;;;;;10.99;72.34;98225.53;4343107;33;32350;-90
2022/11/18 08:58:00;;;;;;;1.23;1.12;;;;;;;11.27;71.18;98223.56;4353083;32;32870;-90
2022/11/18 09:00:28;;;;;;;3.97;1.17;;;;;;;11.49;70.52;98218.44;4352707;32;34004;-91
2022/11/18 09:03:12;;;;;;;3.20;2.35;;;;;;;11.48;70.67;98223.81;4340519;32;33079;-90
2022/11/18 09:05:51;;;;;;;0.75;0.75;;;;;;;11.65;69.81;98231.38;4338522;32;32226;-90
2022/11/18 09:08:37;;;;;;;2.92;2.60;;;;;;;11.75;69.22;98232.37;4333464;33;32707;-90
2022/11/18 09:11:11;;;;;;;1.37;1.27;;;;;;;11.50;70.13;98241.25;4353560;32;33108;-91
2022/11/18 09:13:59;;;;;;;2.05;1.87;;;;;;;11.44;70.34;98246.13;4345942;32;33444;-90
2022/11/18 09:16:46;;;;;;;1.35;1.27;;;;;;;11.52;70.23;98249.91;4340118;33;33728;-91
2022/11/18 09:19:17;;;;;;;0.80;0.75;;;;;;;11.58;69.77;98238.03;4354063;32;32819;-91
2022/11/18 09:22:05;;;;;;;2.83;1.05;;;;;;;11.43;70.48;98232.06;4345284;32;32930;-90
2022/11/18 09:24:36;;;;;;;1.35;1.25;;;;;;;11.46;70.62;98221.28;4345298;33;33077;-91
2022/11/18 09:27:06;;;;;;;2.87;2.72;;;;;;;11.47;70.18;98217.69;4352931;32;32299;-91
2022/11/18 09:29:48;;;;;;;3.95;2.22;;;;;;;10.91;72.66;98217.28;4361976;32;32515;-91
2022/11/18 09:32:16;;;;;;;2.35;2.17;;;;;;;11.31;71.20;98205.69;4373967;32;32953;-91
2022/11/18 09:34:45;;;;;;;2.25;2.05;;;;;;;11.42;70.52;98211.88;4346133;32;33465;-91
2022/11/18 09:37:24;;;;;;;1.15;1.05;;;;;;;11.13;71.82;98210.50;4354508;32;31902;-90
2022/11/18 09:40:01;;;;;;;1.35;1.30;;;;;;;11.48;70.11;98195.56;4365980;32;32889;-90
2022/11/18 09:42:40;;;;;;;0.93;0.93;;;;;;;11.15;71.18;98192.72;4369276;32;33355;-90
2022/11/18 09:45:38;;;;;;;1.08;1.08;;;;;;;11.23;71.17;98200.94;4359421;32;33330;-91
2022/11/18 09:48:19;;;;;;;3.30;3.00;;;;;;;10.91;72.48;98212.00;4361432;32;32181;-90
2022/11/18 09:50:47;;;;;;;1.77;1.62;;;;;;;10.95;72.37;98213.47;4367255;32;33628;-89
2022/11/18 09:53:22;;;;;;;3.83;1.98;;;;;;;10.74;73.01;98201.78;4364343;32;34273;-90
2022/11/18 09:55:51;;;;;;;2.67;1.92;;;;;;;11.02;72.29;98183.06;4353738;32;33755;-90
2022/11/18 09:58:34;;;;;;;4.78;2.20;;;;;;;10.83;72.57;98180.03;4370111;32;33284;-89
2022/11/18 10:01:11;;;;;;;3.28;2.97;;;;;;;10.72;73.21;98169.38;4363550;32;32659;-89
2022/11/18 10:03:39;;;;;;;1.33;0.85;;;;;;;10.87;72.66;98157.75;4351602;32;34778;-89
2022/11/18 10:06:08;;;;;;;2.50;1.77;;;;;;;10.87;72.81;98148.94;4356010;32;33037;-89
2022/11/18 10:08:57;;;;;;;2.75;2.30;;;;;;;10.90;72.69;98152.22;4359747;32;33010;-89
2022/11/18 10:11:34;;;;;;;3.80;2.33;;;;;;;10.51;73.77;98146.16;4351588;32;32737;-89
2022/11/18 10:14:43;;;;;;;2.50;2.30;;;;;;;10.66;73.14;98164.53;4365512;32;33165;-89
2022/11/18 10:17:49;;;;;;;1.37;1.12;;;;;;;10.64;73.72;98166.44;4351149;32;33843;-89
2022/11/18 10:20:32;;;;;;;1.75;1.62;;;;;;;10.52;73.82;98168.12;4363297;32;32572;-90
2022/11/18 10:23:20;;;;;;;6.07;3.58;;;;;;;10.65;73.78;98162.84;4363083;32;33520;-89
2022/11/18 10:25:48;;;;;;;1.75;1.12;;;;;;;10.51;74.03;98161.16;4351182;32;33384;-89
2022/11/18 10:28:23;;;;;;;2.80;2.20;;;;;;;10.94;72.48;98150.22;4350113;32;34477;-89
2022/11/18 10:30:54;;;;;;;1.62;1.60;;;;;;;10.95;72.03;98155.38;4349190;32;32354;-89
2022/11/18 10:33:22;;;;;;;5.62;2.50;;;;;;;10.84;72.08;98157.94;4353838;32;32477;-90
2022/11/18 10:35:50;;;;;;;5.28;2.42;;;;;;;10.95;71.82;98152.75;4364279;32;32663;-90
2022/11/18 10:38:19;;;;;;;5.18;2.87;;;;;;;10.84;72.26;98152.66;4352744;32;32550;-89
2022/11/18 10:41:02;;;;;;;4.62;3.33;;;;;;;10.74;72.90;98151.63;4354608;32;32154;-89
2022/11/18 10:43:45;;;;;;;2.40;2.05;;;;;;;10.89;71.85;98150.53;4363398;32;33808;-89
2022/11/18 10:46:25;;;;;;;3.28;3.08;;;;;;;10.79;72.29;98148.66;4363863;32;33316;-89
2022/11/18 10:49:13;;;;;;;1.23;1.23;;;;;;;10.78;72.21;98153.12;4378811;32;34069;-89
2022/11/18 10:52:03;;;;;;;2.62;1.87;;;;;;;10.86;71.66;98134.06;4351426;32;32263;-89
2022/11/18 10:54:31;;;;;;;1.60;1.23;;;;;;;10.99;71.21;98133.09;4354716;32;32733;-90
2022/11/18 10:57:37;;;;;;;1.33;1.25;;;;;;;10.93;71.52;98140.63;4353822;32;32961;-90
2022/11/18 11:00:25;;;;;;;0.37;0.37;;;;;;;11.01;71.32;98139.13;4350211;32;33435;-88
2022/11/18 11:02:53;;;;;;;0.70;0.70;;;;;;;11.00;71.44;98141.84;4362250;32;34085;-88
2022/11/18 11:05:22;;;;;;;2.00;1.83;;;;;;;10.77;72.36;98140.84;4360903;32;33898;-88
2022/11/18 11:08:05;;;;;;;0.55;0.55;;;;;;;10.93;71.93;98130.88;4358161;32;33864;-88
2022/11/18 11:10:57;;;;;;;1.27;1.27;;;;;;;11.16;71.32;98137.16;4358424;32;33495;-89
2022/11/18 11:13:27;;;;;;;2.03;1.87;;;;;;;11.17;70.57;98140.66;4375351;32;32674;-89
2022/11/18 11:15:58;;;;;;;1.73;1.62;;;;;;;11.38;70.10;98147.00;4355764;32;33065;-88
2022/11/18 11:18:40;;;;;;;2.05;1.30;;;;;;;11.41;69.88;98141.50;4357777;32;34762;-88
2022/11/18 11:21:13;;;;;;;1.65;1.52;;;;;;;11.27;70.23;98146.94;4364890;32;32741;-89
2022/11/18 11:23:41;;;;;;;0.45;0.45;;;;;;;11.21;70.78;98160.59;4367144;32;33266;-88
2022/11/18 11:26:27;;;;;;;1.65;1.12;;;;;;;11.56;69.60;98154.53;4368244;32;34326;-87
2022/11/18 11:29:42;;;;;;;0.60;0.60;;;;;;;11.66;69.20;98155.53;4367026;32;35068;-89
2022/11/18 11:32:16;;;;;;;0.88;0.88;;;;;;;11.75;68.81;98157.50;4367722;32;33228;-89
2022/11/18 11:34:51;;;;;;;2.95;2.75;;;;;;;11.89;68.51;98151.22;4367476;32;32228;-89
2022/11/18 11:37:38;;;;;;;4.47;2.17;;;;;;;12.02;67.77;98142.22;4358426;32;33629;-89
2022/11/18 11:40:25;;;;;;;2.47;2.25;;;;;;;12.00;67.91;98138.00;4363984;32;33773;-89
2022/11/18 11:43:01;;;;;;;1.85;1.05;;;;;;;11.91;68.17;98147.47;4356017;32;34249;-89
2022/11/18 11:45:47;;;;;;;1.35;1.23;;;;;;;11.92;68.22;98135.13;4364705;32;33022;-89
2022/11/18 11:49:13;;;;;;;0.55;0.55;;;;;;;11.98;67.87;98135.47;4365961;32;32650;-89
2022/11/18 11:51:57;;;;;;;4.57;0.55;;;;;;;11.79;68.85;98148.37;4320044;32;33901;-89
2022/11/18 11:55:16;;;;;;;8.65;1.33;;;;;;;11.82;68.77;98139.34;4359271;32;32978;-88
2022/11/18 11:57:50;;;;;;;2.05;1.85;;;;;;;11.84;68.33;98130.41;4356804;32;32834;-88
2022/11/18 12:00:18;;;;;;;2.67;2.40;;;;;;;11.63;69.35;98129.31;4355467;32;34272;-88
2022/11/18 12:02:49;;;;;;;3.90;2.20;;;;;;;11.70;69.38;98126.09;4365385;32;34254;-88
2022/11/18 12:05:22;;;;;;;1.08;0.77;;;;;;;11.94;68.33;98131.38;4359045;32;32397;-86
2022/11/18 12:07:56;;;;;;;1.15;1.15;;;;;;;11.53;69.55;98134.44;4356620;32;33874;-88
2022/11/18 12:10:33;;;;;;;0.73;0.73;;;;;;;11.80;69.10;98139.47;4356480;32;32402;-87
2022/11/18 12:13:23;;;;;;;0.93;0.93;;;;;;;11.76;69.00;98130.94;4364699;32;32939;-87
2022/11/18 12:16:12;;;;;;;1.92;1.65;;;;;;;11.91;68.56;98133.41;4355206;32;33848;-85
2022/11/18 12:18:44;;;;;;;1.58;1.45;;;;;;;11.78;68.97;98128.19;4351017;32;33151;-87
2022/11/18 12:21:54;;;;;;;0.68;0.68;;;;;;;11.57;69.34;98121.84;4361198;32;33721;-87
2022/11/18 12:24:24;;;;;;;3.20;1.70;;;;;;;11.53;69.76;98113.28;4357706;32;32924;-87